createdAt,value
2017-09-15T00:00:18.204Z,13.96
2017-09-15T00:01:17.894Z,13.93
2017-09-15T00:02:17.916Z,13.9
2017-09-15T00:03:18.434Z,13.93
2017-09-15T00:04:17.792Z,13.89
2017-09-15T00:05:18.436Z,13.93
2017-09-15T00:06:18.315Z,13.9
2017-09-15T00:07:18.010Z,14
2017-09-15T00:08:18.036Z,14
2017-09-15T00:09:18.538Z,14
2017-09-15T00:10:18.067Z,14.04
2017-09-15T00:11:18.481Z,14.04
2017-09-15T00:12:17.777Z,14.03
2017-09-15T00:13:18.442Z,14
2017-09-15T00:14:18.138Z,14.04
2017-09-15T00:15:18.157Z,14.03
2017-09-15T00:16:18.498Z,14.04
2017-09-15T00:17:18.190Z,14.03
2017-09-15T00:18:18.207Z,14.03
2017-09-15T00:19:18.228Z,14
2017-09-15T00:20:17.928Z,14.03
2017-09-15T00:21:18.587Z,14.04
2017-09-15T00:22:18.601Z,14.03
2017-09-15T00:23:18.621Z,14.03
2017-09-15T00:24:18.316Z,14.08
2017-09-15T00:25:18.344Z,14
2017-09-15T00:26:18.674Z,14.04
2017-09-15T00:27:18.046Z,14.03
2017-09-15T00:28:18.719Z,14
2017-09-15T00:29:18.730Z,14.04
2017-09-15T00:30:18.429Z,14.03
2017-09-15T00:31:18.771Z,14.05
2017-09-15T00:32:18.470Z,14.03
2017-09-15T00:33:18.802Z,14
2017-09-15T00:34:18.501Z,13.99
2017-09-15T00:35:18.838Z,14
2017-09-15T00:36:18.533Z,14.05
2017-09-15T00:37:18.746Z,14
2017-09-15T00:38:18.251Z,14.07
2017-09-15T00:39:18.589Z,13.99
2017-09-15T00:40:18.286Z,14.07
2017-09-15T00:41:18.625Z,14.07
2017-09-15T00:42:18.966Z,14.03
2017-09-15T00:43:18.663Z,14.05
2017-09-15T00:44:19.010Z,13.99
2017-09-15T00:45:19.020Z,14.03
2017-09-15T00:46:18.719Z,14.04
2017-09-15T00:47:19.063Z,14.07
2017-09-15T00:48:18.753Z,14
2017-09-15T00:49:18.772Z,14.05
2017-09-15T00:50:18.787Z,14.04
2017-09-15T00:51:19.130Z,14.04
2017-09-15T00:52:19.151Z,14.03
2017-09-15T00:53:19.170Z,14.05
2017-09-15T00:54:18.536Z,14
2017-09-15T00:55:18.878Z,14
2017-09-15T00:56:18.897Z,14.11
2017-09-15T00:57:19.271Z,14
2017-09-15T00:58:18.932Z,14.08
2017-09-15T00:59:19.340Z,14.04
2017-09-15T01:00:18.964Z,14
2017-09-15T01:01:19.314Z,14
2017-09-15T01:02:19.330Z,14
2017-09-15T01:03:19.093Z,14
2017-09-15T01:04:19.041Z,14
2017-09-15T01:05:19.077Z,13.99
2017-09-15T01:06:19.078Z,13.99
2017-09-15T01:07:19.094Z,14.07
2017-09-15T01:08:19.110Z,14.04
2017-09-15T01:09:19.149Z,14.03
2017-09-15T01:10:19.894Z,14.03
2017-09-15T01:11:19.176Z,14.04
2017-09-15T01:12:19.508Z,14.07
2017-09-15T01:13:19.528Z,14.08
2017-09-15T01:14:19.548Z,14.03
2017-09-15T01:15:19.238Z,13.99
2017-09-15T01:16:18.935Z,14.05
2017-09-15T01:17:19.274Z,14.08
2017-09-15T01:18:19.618Z,14.05
2017-09-15T01:19:19.496Z,14.05
2017-09-15T01:20:19.654Z,14.12
2017-09-15T01:21:19.370Z,14.12
2017-09-15T01:22:19.690Z,14.07
2017-09-15T01:23:19.281Z,14.07
2017-09-15T01:24:19.405Z,14.14
2017-09-15T01:25:19.098Z,14.08
2017-09-15T01:26:19.896Z,14.1
2017-09-15T01:27:19.131Z,14.05
2017-09-15T01:28:19.477Z,14.07
2017-09-15T01:29:19.495Z,14.05
2017-09-15T01:30:19.516Z,14.1
2017-09-15T01:31:19.207Z,14.08
2017-09-15T01:32:20.069Z,14.08
2017-09-15T01:33:19.884Z,14.07
2017-09-15T01:34:19.904Z,14.08
2017-09-15T01:35:19.600Z,14.07
2017-09-15T01:36:19.625Z,14.1
2017-09-15T01:37:19.638Z,14.11
2017-09-15T01:38:19.656Z,14.12
2017-09-15T01:39:20.003Z,14.08
2017-09-15T01:40:19.692Z,14.05
2017-09-15T01:41:19.712Z,14.05
2017-09-15T01:42:19.728Z,14.1
2017-09-15T01:43:19.747Z,14.05
2017-09-15T01:44:20.089Z,14.03
2017-09-15T01:45:19.783Z,14.11
2017-09-15T01:46:19.480Z,14.07
2017-09-15T01:47:19.496Z,14.03
2017-09-15T01:48:20.157Z,14
2017-09-15T01:49:19.858Z,14.03
2017-09-15T01:50:19.872Z,14.05
2017-09-15T01:51:19.896Z,14.05
2017-09-15T01:52:19.923Z,14.05
2017-09-15T01:53:20.248Z,14
2017-09-15T01:54:19.948Z,14.03
2017-09-15T01:55:19.967Z,13.99
2017-09-15T01:56:20.302Z,14
2017-09-15T01:57:20.198Z,14.04
2017-09-15T01:58:19.698Z,13.97
2017-09-15T01:59:20.361Z,13.95
2017-09-15T02:00:20.374Z,13.95
2017-09-15T02:01:20.074Z,13.89
2017-09-15T02:02:20.412Z,14.05
2017-09-15T02:03:19.786Z,13.95
2017-09-15T02:04:20.452Z,13.9
2017-09-15T02:05:20.370Z,13.95
2017-09-15T02:06:20.884Z,13.99
2017-09-15T02:07:19.857Z,13.92
2017-09-15T02:08:20.207Z,13.95
2017-09-15T02:09:20.217Z,13.9
2017-09-15T02:10:20.615Z,13.92
2017-09-15T02:11:19.930Z,14
2017-09-15T02:12:20.612Z,13.93
2017-09-15T02:13:20.622Z,13.92
2017-09-15T02:14:20.640Z,13.99
2017-09-15T02:15:20.328Z,13.99
2017-09-15T02:16:20.666Z,13.95
2017-09-15T02:17:20.689Z,13.93
2017-09-15T02:18:20.380Z,13.93
2017-09-15T02:19:20.397Z,14
2017-09-15T02:20:20.751Z,13.97
2017-09-15T02:21:20.757Z,13.97
2017-09-15T02:22:20.456Z,14.03
2017-09-15T02:23:20.790Z,14
2017-09-15T02:24:20.811Z,13.92
2017-09-15T02:25:20.506Z,14.04
2017-09-15T02:26:20.521Z,14
2017-09-15T02:27:20.540Z,13.92
2017-09-15T02:28:20.616Z,13.89
2017-09-15T02:29:20.934Z,13.92
2017-09-15T02:30:20.928Z,14
2017-09-15T02:31:20.937Z,13.97
2017-09-15T02:32:20.634Z,13.97
2017-09-15T02:33:20.654Z,14.03
2017-09-15T02:34:20.990Z,13.95
2017-09-15T02:35:20.715Z,13.95
2017-09-15T02:36:20.709Z,13.9
2017-09-15T02:37:20.721Z,13.92
2017-09-15T02:38:20.741Z,13.96
2017-09-15T02:39:21.085Z,13.99
2017-09-15T02:40:21.111Z,13.9
2017-09-15T02:41:20.798Z,14.03
2017-09-15T02:42:21.139Z,13.93
2017-09-15T02:43:20.833Z,13.9
2017-09-15T02:44:21.169Z,14
2017-09-15T02:45:21.191Z,14
2017-09-15T02:46:20.560Z,13.92
2017-09-15T02:47:20.902Z,13.92
2017-09-15T02:48:20.606Z,13.93
2017-09-15T02:49:21.350Z,13.92
2017-09-15T02:50:21.281Z,13.92
2017-09-15T02:51:21.298Z,13.97
2017-09-15T02:52:21.313Z,13.97
2017-09-15T02:53:21.347Z,13.92
2017-09-15T02:54:21.363Z,13.96
2017-09-15T02:55:21.055Z,13.95
2017-09-15T02:56:21.388Z,13.97
2017-09-15T02:57:21.081Z,13.96
2017-09-15T02:58:21.110Z,13.96
2017-09-15T02:59:21.118Z,13.95
2017-09-15T03:00:21.466Z,13.93
2017-09-15T03:01:21.155Z,13.93
2017-09-15T03:02:21.494Z,13.96
2017-09-15T03:03:20.870Z,13.92
2017-09-15T03:04:21.721Z,14.03
2017-09-15T03:05:21.293Z,13.99
2017-09-15T03:06:21.572Z,14.04
2017-09-15T03:07:21.585Z,14.04
2017-09-15T03:08:21.377Z,13.92
2017-09-15T03:09:21.624Z,13.9
2017-09-15T03:10:21.639Z,13.96
2017-09-15T03:11:21.655Z,13.93
2017-09-15T03:12:21.352Z,13.95
2017-09-15T03:13:21.370Z,14.03
2017-09-15T03:14:21.068Z,13.95
2017-09-15T03:15:21.409Z,14.05
2017-09-15T03:16:21.745Z,14
2017-09-15T03:17:21.918Z,14.03
2017-09-15T03:18:21.464Z,14.04
2017-09-15T03:19:21.699Z,14.07
2017-09-15T03:20:21.825Z,14.07
2017-09-15T03:21:21.963Z,13.99
2017-09-15T03:22:21.537Z,14.1
2017-09-15T03:23:21.875Z,13.99
2017-09-15T03:24:21.252Z,14.07
2017-09-15T03:25:22.040Z,14.04
2017-09-15T03:26:22.215Z,14.07
2017-09-15T03:27:21.299Z,14.11
2017-09-15T03:28:22.167Z,14.04
2017-09-15T03:29:21.961Z,14.11
2017-09-15T03:30:21.357Z,14.11
2017-09-15T03:31:21.423Z,14.08
2017-09-15T03:32:21.717Z,14.03
2017-09-15T03:33:21.556Z,14.1
2017-09-15T03:34:21.425Z,14.1
2017-09-15T03:35:22.090Z,14.05
2017-09-15T03:36:21.788Z,14.05
2017-09-15T03:37:21.805Z,14.04
2017-09-15T03:38:22.207Z,14.04
2017-09-15T03:39:21.841Z,14
2017-09-15T03:40:22.182Z,14.03
2017-09-15T03:41:21.902Z,14.04
2017-09-15T03:42:22.327Z,14
2017-09-15T03:43:22.324Z,14
2017-09-15T03:44:22.362Z,14.03
2017-09-15T03:45:21.624Z,14
2017-09-15T03:46:22.354Z,14.04
2017-09-15T03:47:21.987Z,14.04
2017-09-15T03:48:22.358Z,13.99
2017-09-15T03:49:22.018Z,14
2017-09-15T03:50:22.364Z,13.99
2017-09-15T03:51:22.467Z,14.03
2017-09-15T03:52:22.078Z,13.99
2017-09-15T03:53:22.093Z,13.99
2017-09-15T03:54:22.204Z,13.92
2017-09-15T03:55:22.458Z,13.96
2017-09-15T03:56:22.473Z,13.93
2017-09-15T03:57:22.493Z,13.92
2017-09-15T03:58:22.510Z,13.9
2017-09-15T03:59:22.206Z,13.9
2017-09-15T04:00:22.544Z,13.92
2017-09-15T04:01:22.643Z,13.99
2017-09-15T04:02:22.301Z,13.92
2017-09-15T04:03:22.359Z,13.9
2017-09-15T04:04:22.292Z,13.96
2017-09-15T04:05:22.308Z,14.03
2017-09-15T04:06:22.336Z,13.96
2017-09-15T04:07:22.020Z,13.92
2017-09-15T04:08:22.690Z,13.93
2017-09-15T04:09:22.824Z,13.96
2017-09-15T04:10:22.819Z,13.93
2017-09-15T04:11:22.502Z,13.96
2017-09-15T04:12:22.441Z,13.96
2017-09-15T04:13:22.776Z,13.92
2017-09-15T04:14:22.475Z,13.93
2017-09-15T04:15:22.164Z,13.92
2017-09-15T04:16:22.957Z,13.95
2017-09-15T04:17:22.528Z,13.92
2017-09-15T04:18:22.543Z,13.9
2017-09-15T04:19:22.563Z,13.93
2017-09-15T04:20:22.603Z,13.93
2017-09-15T04:21:22.935Z,13.93
2017-09-15T04:22:22.614Z,13.92
2017-09-15T04:23:22.633Z,13.93
2017-09-15T04:24:23.082Z,13.96
2017-09-15T04:25:22.671Z,13.9
2017-09-15T04:26:22.689Z,13.87
2017-09-15T04:27:22.707Z,13.89
2017-09-15T04:28:23.139Z,13.92
2017-09-15T04:29:23.023Z,13.89
2017-09-15T04:30:22.978Z,13.89
2017-09-15T04:31:23.291Z,13.87
2017-09-15T04:32:22.947Z,13.95
2017-09-15T04:33:22.938Z,13.87
2017-09-15T04:34:22.508Z,13.85
2017-09-15T04:35:22.850Z,13.89
2017-09-15T04:36:22.869Z,13.89
2017-09-15T04:37:22.887Z,13.85
2017-09-15T04:38:23.277Z,13.79
2017-09-15T04:39:22.921Z,13.95
2017-09-15T04:40:23.275Z,13.9
2017-09-15T04:41:23.291Z,13.83
2017-09-15T04:42:23.384Z,13.81
2017-09-15T04:43:22.674Z,13.9
2017-09-15T04:44:22.691Z,13.81
2017-09-15T04:45:23.040Z,13.83
2017-09-15T04:46:23.048Z,13.89
2017-09-15T04:47:23.394Z,13.77
2017-09-15T04:48:23.407Z,13.77
2017-09-15T04:49:23.105Z,13.81
2017-09-15T04:50:23.121Z,13.83
2017-09-15T04:51:23.253Z,13.87
2017-09-15T04:52:23.478Z,13.79
2017-09-15T04:53:23.495Z,13.77
2017-09-15T04:54:23.193Z,13.79
2017-09-15T04:55:23.538Z,13.77
2017-09-15T04:56:23.550Z,13.79
2017-09-15T04:57:23.599Z,13.77
2017-09-15T04:58:23.264Z,13.78
2017-09-15T04:59:23.284Z,13.77
2017-09-15T05:00:23.301Z,13.85
2017-09-15T05:01:23.349Z,13.81
2017-09-15T05:02:23.669Z,13.78
2017-09-15T05:03:23.373Z,13.79
2017-09-15T05:04:23.698Z,13.74
2017-09-15T05:05:23.388Z,13.77
2017-09-15T05:06:23.410Z,13.83
2017-09-15T05:07:23.748Z,13.81
2017-09-15T05:08:23.449Z,13.78
2017-09-15T05:09:23.792Z,13.85
2017-09-15T05:10:23.805Z,13.77
2017-09-15T05:11:23.495Z,13.72
2017-09-15T05:12:23.644Z,13.86
2017-09-15T05:13:23.856Z,13.79
2017-09-15T05:14:23.645Z,13.79
2017-09-15T05:15:23.892Z,13.83
2017-09-15T05:16:23.591Z,13.83
2017-09-15T05:17:23.761Z,13.78
2017-09-15T05:18:23.748Z,13.72
2017-09-15T05:19:23.429Z,13.79
2017-09-15T05:20:23.777Z,13.83
2017-09-15T05:21:24.118Z,13.79
2017-09-15T05:22:24.017Z,13.83
2017-09-15T05:23:23.393Z,13.78
2017-09-15T05:24:23.733Z,13.81
2017-09-15T05:25:24.074Z,13.79
2017-09-15T05:26:23.766Z,13.81
2017-09-15T05:27:24.118Z,13.81
2017-09-15T05:28:23.804Z,13.81
2017-09-15T05:29:23.820Z,13.74
2017-09-15T05:30:24.169Z,13.77
2017-09-15T05:31:23.856Z,13.79
2017-09-15T05:32:23.549Z,13.83
2017-09-15T05:33:23.574Z,13.81
2017-09-15T05:34:24.238Z,13.83
2017-09-15T05:35:24.255Z,13.83
2017-09-15T05:36:24.272Z,13.78
2017-09-15T05:37:24.296Z,13.79
2017-09-15T05:38:24.309Z,13.78
2017-09-15T05:39:24.006Z,13.81
2017-09-15T05:40:23.696Z,13.9
2017-09-15T05:41:24.059Z,13.86
2017-09-15T05:42:24.051Z,13.78
2017-09-15T05:43:24.072Z,13.83
2017-09-15T05:44:24.097Z,13.78
2017-09-15T05:45:24.430Z,13.85
2017-09-15T05:46:24.136Z,13.87
2017-09-15T05:47:24.144Z,13.92
2017-09-15T05:48:24.484Z,13.85
2017-09-15T05:49:24.500Z,13.96
2017-09-15T05:50:24.225Z,13.87
2017-09-15T05:51:24.538Z,13.93
2017-09-15T05:52:24.231Z,13.93
2017-09-15T05:53:24.577Z,13.89
2017-09-15T05:54:24.274Z,13.93
2017-09-15T05:55:24.288Z,13.97
2017-09-15T05:56:24.628Z,13.99
2017-09-15T05:57:24.323Z,13.97
2017-09-15T05:58:24.201Z,13.93
2017-09-15T05:59:24.359Z,14.04
2017-09-15T06:00:24.701Z,14.03
2017-09-15T06:01:24.397Z,14.08
2017-09-15T06:02:24.412Z,14.05
2017-09-15T06:03:24.441Z,14
2017-09-15T06:04:24.122Z,14.07
2017-09-15T06:05:24.141Z,14.11
2017-09-15T06:06:24.816Z,14.08
2017-09-15T06:07:24.508Z,14.11
2017-09-15T06:08:24.196Z,14.07
2017-09-15T06:09:24.543Z,14.12
2017-09-15T06:10:24.559Z,14.15
2017-09-15T06:11:24.580Z,14.11
2017-09-15T06:12:24.593Z,14.15
2017-09-15T06:13:24.610Z,14.2
2017-09-15T06:14:24.634Z,14.03
2017-09-15T06:15:24.322Z,14.14
2017-09-15T06:16:24.988Z,14.2
2017-09-15T06:17:25.007Z,14.15
2017-09-15T06:18:25.023Z,14.2
2017-09-15T06:19:25.045Z,14.12
2017-09-15T06:20:24.738Z,14.26
2017-09-15T06:21:24.754Z,14.14
2017-09-15T06:22:24.773Z,14.17
2017-09-15T06:23:24.530Z,14.12
2017-09-15T06:24:24.808Z,14.17
2017-09-15T06:25:24.506Z,14.12
2017-09-15T06:26:24.862Z,14.26
2017-09-15T06:27:24.542Z,14.25
2017-09-15T06:28:24.884Z,14.23
2017-09-15T06:29:24.901Z,14.29
2017-09-15T06:30:25.242Z,14.28
2017-09-15T06:31:24.616Z,14.25
2017-09-15T06:32:25.311Z,14.3
2017-09-15T06:33:24.971Z,14.25
2017-09-15T06:34:24.992Z,14.33
2017-09-15T06:35:25.009Z,14.28
2017-09-15T06:36:24.706Z,14.35
2017-09-15T06:37:24.720Z,14.36
2017-09-15T06:38:25.062Z,14.33
2017-09-15T06:39:25.182Z,14.36
2017-09-15T06:40:24.777Z,14.43
2017-09-15T06:41:25.119Z,14.45
2017-09-15T06:42:25.134Z,14.5
2017-09-15T06:43:25.154Z,14.47
2017-09-15T06:44:25.500Z,14.36
2017-09-15T06:45:25.520Z,14.4
2017-09-15T06:46:24.892Z,14.5
2017-09-15T06:47:25.553Z,14.45
2017-09-15T06:48:25.758Z,14.51
2017-09-15T06:49:25.269Z,14.51
2017-09-15T06:50:25.607Z,14.53
2017-09-15T06:51:25.637Z,14.47
2017-09-15T06:52:25.316Z,14.54
2017-09-15T06:53:25.353Z,14.53
2017-09-15T06:54:25.032Z,14.63
2017-09-15T06:55:25.708Z,14.63
2017-09-15T06:56:25.391Z,14.63
2017-09-15T06:57:25.408Z,14.65
2017-09-15T06:58:25.472Z,14.7
2017-09-15T06:59:25.130Z,14.62
2017-09-15T07:00:25.474Z,14.69
2017-09-15T07:01:25.806Z,14.7
2017-09-15T07:02:25.825Z,14.73
2017-09-15T07:03:25.853Z,14.77
2017-09-15T07:04:25.213Z,14.69
2017-09-15T07:05:25.234Z,14.77
2017-09-15T07:06:25.249Z,14.73
2017-09-15T07:07:25.599Z,14.79
2017-09-15T07:08:25.941Z,14.78
2017-09-15T07:09:25.632Z,14.78
2017-09-15T07:10:26.002Z,14.84
2017-09-15T07:11:25.672Z,14.78
2017-09-15T07:12:26.037Z,14.73
2017-09-15T07:13:25.702Z,14.78
2017-09-15T07:14:25.719Z,14.78
2017-09-15T07:15:26.063Z,14.85
2017-09-15T07:16:25.756Z,14.84
2017-09-15T07:17:25.775Z,14.82
2017-09-15T07:18:26.128Z,14.86
2017-09-15T07:19:25.812Z,14.97
2017-09-15T07:20:26.159Z,14.92
2017-09-15T07:21:26.175Z,14.96
2017-09-15T07:22:25.869Z,14.94
2017-09-15T07:23:26.219Z,14.94
2017-09-15T07:24:26.018Z,15
2017-09-15T07:25:25.602Z,14.94
2017-09-15T07:26:26.266Z,14.97
2017-09-15T07:27:25.959Z,14.97
2017-09-15T07:28:25.986Z,15
2017-09-15T07:29:25.996Z,15
2017-09-15T07:30:26.340Z,14.97
2017-09-15T07:31:26.690Z,14.92
2017-09-15T07:32:26.576Z,14.96
2017-09-15T07:33:26.070Z,15.02
2017-09-15T07:34:26.094Z,14.99
2017-09-15T07:35:26.110Z,15.1
2017-09-15T07:36:26.126Z,15.07
2017-09-15T07:37:25.819Z,15.06
2017-09-15T07:38:26.164Z,15.06
2017-09-15T07:39:25.856Z,15.14
2017-09-15T07:40:26.299Z,15.06
2017-09-15T07:41:26.221Z,15.06
2017-09-15T07:42:26.238Z,15.11
2017-09-15T07:43:26.256Z,15.11
2017-09-15T07:44:26.718Z,15.19
2017-09-15T07:45:25.966Z,15.19
2017-09-15T07:46:25.989Z,15.17
2017-09-15T07:47:26.346Z,15.22
2017-09-15T07:48:26.681Z,15.17
2017-09-15T07:49:26.171Z,15.24
2017-09-15T07:50:26.709Z,15.33
2017-09-15T07:51:26.084Z,15.43
2017-09-15T07:52:26.744Z,15.25
2017-09-15T07:53:26.443Z,15.37
2017-09-15T07:54:26.135Z,15.36
2017-09-15T07:55:26.476Z,15.39
2017-09-15T07:56:26.501Z,15.44
2017-09-15T07:57:26.514Z,15.47
2017-09-15T07:58:26.545Z,15.51
2017-09-15T07:59:26.741Z,15.51
2017-09-15T08:00:27.061Z,15.52
2017-09-15T08:01:26.741Z,15.49
2017-09-15T08:02:26.405Z,15.67
2017-09-15T08:03:26.633Z,15.62
2017-09-15T08:04:26.656Z,15.7
2017-09-15T08:05:26.990Z,15.77
2017-09-15T08:06:26.779Z,15.72
2017-09-15T08:07:27.027Z,15.82
2017-09-15T08:08:26.723Z,15.8
2017-09-15T08:09:26.741Z,15.92
2017-09-15T08:10:26.762Z,15.91
2017-09-15T08:11:26.579Z,15.91
2017-09-15T08:12:26.850Z,15.92
2017-09-15T08:13:27.342Z,15.98
2017-09-15T08:14:27.188Z,15.98
2017-09-15T08:15:26.857Z,16.01
2017-09-15T08:16:26.873Z,15.98
2017-09-15T08:17:26.570Z,15.95
2017-09-15T08:18:26.914Z,15.97
2017-09-15T08:19:26.938Z,16.08
2017-09-15T08:20:26.961Z,16.05
2017-09-15T08:21:26.970Z,16.13
2017-09-15T08:22:27.037Z,16.2
2017-09-15T08:23:26.698Z,16.23
2017-09-15T08:24:27.024Z,16.28
2017-09-15T08:25:27.368Z,16.17
2017-09-15T08:26:27.390Z,16.24
2017-09-15T08:27:26.759Z,16.35
2017-09-15T08:28:27.425Z,16.36
2017-09-15T08:29:27.450Z,16.46
2017-09-15T08:30:27.139Z,16.46
2017-09-15T08:31:26.838Z,16.49
2017-09-15T08:32:27.177Z,16.49
2017-09-15T08:33:27.240Z,16.53
2017-09-15T08:34:27.220Z,16.54
2017-09-15T08:35:27.569Z,16.61
2017-09-15T08:36:27.022Z,16.64
2017-09-15T08:37:26.954Z,16.65
2017-09-15T08:38:27.294Z,16.65
2017-09-15T08:39:27.316Z,16.76
2017-09-15T08:40:27.336Z,16.76
2017-09-15T08:41:27.353Z,16.81
2017-09-15T08:42:27.371Z,16.79
2017-09-15T08:43:27.389Z,16.83
2017-09-15T08:44:27.733Z,16.79
2017-09-15T08:45:27.431Z,16.89
2017-09-15T08:46:27.573Z,16.79
2017-09-15T08:47:27.798Z,16.93
2017-09-15T08:48:27.165Z,16.91
2017-09-15T08:49:27.183Z,16.86
2017-09-15T08:50:27.200Z,16.89
2017-09-15T08:51:27.544Z,16.86
2017-09-15T08:52:27.244Z,16.87
2017-09-15T08:53:27.908Z,16.97
2017-09-15T08:54:27.649Z,16.99
2017-09-15T08:55:27.626Z,17.01
2017-09-15T08:56:27.675Z,17.04
2017-09-15T08:57:28.121Z,17.05
2017-09-15T08:58:27.682Z,16.97
2017-09-15T08:59:28.025Z,17.04
2017-09-15T09:00:27.397Z,16.99
2017-09-15T09:01:27.415Z,17.02
2017-09-15T09:02:27.436Z,17.01
2017-09-15T09:03:28.232Z,16.94
2017-09-15T09:04:27.882Z,17.11
2017-09-15T09:05:27.817Z,17.06
2017-09-15T09:06:27.845Z,17.04
2017-09-15T09:07:27.859Z,17.06
2017-09-15T09:08:27.880Z,17.05
2017-09-15T09:09:28.220Z,17.04
2017-09-15T09:10:27.929Z,17.09
2017-09-15T09:11:28.262Z,17.16
2017-09-15T09:12:28.279Z,17.22
2017-09-15T09:13:28.299Z,17.11
2017-09-15T09:14:28.204Z,17.19
2017-09-15T09:15:28.015Z,17.23
2017-09-15T09:16:28.375Z,17.23
2017-09-15T09:17:27.841Z,17.34
2017-09-15T09:18:28.398Z,17.34
2017-09-15T09:19:28.198Z,17.34
2017-09-15T09:20:28.121Z,17.36
2017-09-15T09:21:28.456Z,17.41
2017-09-15T09:22:28.540Z,17.36
2017-09-15T09:23:28.397Z,17.3
2017-09-15T09:24:28.609Z,17.34
2017-09-15T09:25:28.565Z,17.38
2017-09-15T09:26:28.233Z,17.42
2017-09-15T09:27:28.251Z,17.42
2017-09-15T09:28:28.594Z,17.39
2017-09-15T09:29:28.615Z,17.31
2017-09-15T09:30:28.638Z,17.39
2017-09-15T09:31:28.331Z,17.48
2017-09-15T09:32:28.030Z,17.52
2017-09-15T09:33:28.694Z,17.46
2017-09-15T09:34:28.396Z,17.56
2017-09-15T09:35:28.734Z,17.54
2017-09-15T09:36:28.433Z,17.57
2017-09-15T09:37:28.453Z,17.52
2017-09-15T09:38:28.472Z,17.51
2017-09-15T09:39:28.490Z,17.52
2017-09-15T09:40:28.186Z,17.64
2017-09-15T09:41:28.968Z,17.65
2017-09-15T09:42:28.877Z,17.7
2017-09-15T09:43:28.247Z,17.7
2017-09-15T09:44:28.597Z,17.74
2017-09-15T09:45:28.942Z,17.68
2017-09-15T09:46:28.775Z,17.71
2017-09-15T09:47:29.091Z,17.76
2017-09-15T09:48:28.680Z,17.79
2017-09-15T09:49:28.693Z,17.87
2017-09-15T09:50:29.034Z,17.85
2017-09-15T09:51:28.742Z,17.95
2017-09-15T09:52:29.236Z,17.94
2017-09-15T09:53:29.129Z,18.01
2017-09-15T09:54:28.793Z,18.07
2017-09-15T09:55:28.813Z,18.01
2017-09-15T09:56:28.833Z,18.01
2017-09-15T09:57:29.175Z,18.08
2017-09-15T09:58:28.999Z,18.08
2017-09-15T09:59:28.896Z,18.18
2017-09-15T10:00:28.917Z,18.08
2017-09-15T10:01:29.258Z,18.18
2017-09-15T10:02:28.956Z,18.18
2017-09-15T10:03:29.392Z,18.33
2017-09-15T10:04:29.005Z,18.33
2017-09-15T10:05:29.017Z,18.35
2017-09-15T10:06:29.042Z,18.43
2017-09-15T10:07:28.746Z,18.45
2017-09-15T10:08:28.758Z,18.41
2017-09-15T10:09:29.485Z,18.5
2017-09-15T10:10:29.120Z,18.62
2017-09-15T10:11:29.460Z,18.65
2017-09-15T10:12:29.166Z,18.68
2017-09-15T10:13:29.179Z,18.73
2017-09-15T10:14:29.105Z,18.65
2017-09-15T10:15:29.220Z,18.68
2017-09-15T10:16:29.565Z,18.77
2017-09-15T10:17:29.314Z,18.8
2017-09-15T10:18:29.313Z,18.81
2017-09-15T10:19:29.539Z,18.81
2017-09-15T10:20:28.998Z,18.93
2017-09-15T10:21:29.343Z,18.93
2017-09-15T10:22:29.690Z,18.9
2017-09-15T10:23:29.708Z,18.96
2017-09-15T10:24:29.198Z,18.92
2017-09-15T10:25:29.751Z,18.9
2017-09-15T10:26:29.450Z,19.02
2017-09-15T10:27:29.793Z,19
2017-09-15T10:28:29.393Z,19.08
2017-09-15T10:29:29.838Z,19.14
2017-09-15T10:30:29.531Z,19.16
2017-09-15T10:31:29.874Z,19.14
2017-09-15T10:32:29.572Z,19.22
2017-09-15T10:33:29.272Z,19.18
2017-09-15T10:34:29.939Z,19.21
2017-09-15T10:35:29.635Z,19.27
2017-09-15T10:36:30.042Z,19.31
2017-09-15T10:37:29.678Z,19.26
2017-09-15T10:38:29.698Z,19.31
2017-09-15T10:39:29.719Z,19.3
2017-09-15T10:40:29.737Z,19.36
2017-09-15T10:41:29.437Z,19.34
2017-09-15T10:42:30.109Z,19.3
2017-09-15T10:43:29.813Z,19.36
2017-09-15T10:44:30.149Z,19.31
2017-09-15T10:45:30.169Z,19.33
2017-09-15T10:46:29.991Z,19.36
2017-09-15T10:47:29.889Z,19.31
2017-09-15T10:48:29.707Z,19.37
2017-09-15T10:49:29.927Z,19.34
2017-09-15T10:50:29.950Z,19.37
2017-09-15T10:51:30.298Z,19.36
2017-09-15T10:52:29.670Z,19.4
2017-09-15T10:53:30.021Z,19.44
2017-09-15T10:54:30.035Z,19.39
2017-09-15T10:55:30.057Z,19.41
2017-09-15T10:56:30.421Z,19.36
2017-09-15T10:57:30.098Z,19.47
2017-09-15T10:58:30.444Z,19.47
2017-09-15T10:59:30.464Z,19.52
2017-09-15T11:00:30.529Z,19.51
2017-09-15T11:01:29.868Z,19.52
2017-09-15T11:02:30.203Z,19.64
2017-09-15T11:03:30.233Z,19.58
2017-09-15T11:04:30.248Z,19.62
2017-09-15T11:05:30.593Z,19.63
2017-09-15T11:06:30.703Z,19.66
2017-09-15T11:07:30.314Z,19.67
2017-09-15T11:08:30.333Z,19.73
2017-09-15T11:09:30.739Z,19.81
2017-09-15T11:10:30.377Z,19.85
2017-09-15T11:11:30.076Z,19.85
2017-09-15T11:12:30.420Z,19.85
2017-09-15T11:13:30.442Z,19.99
2017-09-15T11:14:30.818Z,19.99
2017-09-15T11:15:30.485Z,19.91
2017-09-15T11:16:30.845Z,19.96
2017-09-15T11:17:30.205Z,19.86
2017-09-15T11:18:30.223Z,19.96
2017-09-15T11:19:30.248Z,19.91
2017-09-15T11:20:30.270Z,19.89
2017-09-15T11:21:30.612Z,19.89
2017-09-15T11:22:30.633Z,19.86
2017-09-15T11:23:30.996Z,19.86
2017-09-15T11:24:31.092Z,19.82
2017-09-15T11:25:31.023Z,19.91
2017-09-15T11:26:30.723Z,19.84
2017-09-15T11:27:30.745Z,19.81
2017-09-15T11:28:31.086Z,19.82
2017-09-15T11:29:30.787Z,19.79
2017-09-15T11:30:30.805Z,19.82
2017-09-15T11:31:31.154Z,19.81
2017-09-15T11:32:30.529Z,19.69
2017-09-15T11:33:30.548Z,19.69
2017-09-15T11:34:30.893Z,19.81
2017-09-15T11:35:30.913Z,19.79
2017-09-15T11:36:30.933Z,19.82
2017-09-15T11:37:30.959Z,19.84
2017-09-15T11:38:31.306Z,19.86
2017-09-15T11:39:31.003Z,19.85
2017-09-15T11:40:31.022Z,19.89
2017-09-15T11:41:31.396Z,19.91
2017-09-15T11:42:31.084Z,19.94
2017-09-15T11:43:31.091Z,19.94
2017-09-15T11:44:31.432Z,19.95
2017-09-15T11:45:31.476Z,20.04
2017-09-15T11:46:31.512Z,19.96
2017-09-15T11:47:31.174Z,20.04
2017-09-15T11:48:31.610Z,20.03
2017-09-15T11:49:31.543Z,20.1
2017-09-15T11:50:31.240Z,20.07
2017-09-15T11:51:31.280Z,20.14
2017-09-15T11:52:31.728Z,20.14
2017-09-15T11:53:31.629Z,20.11
2017-09-15T11:54:31.328Z,20.16
2017-09-15T11:55:31.670Z,20.16
2017-09-15T11:56:31.368Z,20.16
2017-09-15T11:57:31.721Z,20.26
2017-09-15T11:58:31.412Z,20.11
2017-09-15T11:59:31.434Z,20.14
2017-09-15T12:00:31.786Z,20.11
2017-09-15T12:01:31.488Z,20.22
2017-09-15T12:02:31.176Z,20.14
2017-09-15T12:03:31.197Z,20.31
2017-09-15T12:04:31.547Z,20.25
2017-09-15T12:05:31.568Z,20.29
2017-09-15T12:06:31.589Z,20.29
2017-09-15T12:07:31.285Z,20.31
2017-09-15T12:08:31.955Z,20.39
2017-09-15T12:09:31.988Z,20.26
2017-09-15T12:10:31.998Z,20.47
2017-09-15T12:11:32.031Z,20.4
2017-09-15T12:12:32.045Z,20.44
2017-09-15T12:13:31.743Z,20.5
2017-09-15T12:14:31.442Z,20.48
2017-09-15T12:15:31.787Z,20.47
2017-09-15T12:16:32.187Z,20.4
2017-09-15T12:17:31.961Z,20.56
2017-09-15T12:18:31.952Z,20.56
2017-09-15T12:19:31.953Z,20.55
2017-09-15T12:20:31.572Z,20.63
2017-09-15T12:21:31.922Z,20.65
2017-09-15T12:22:32.267Z,20.63
2017-09-15T12:23:31.640Z,20.69
2017-09-15T12:24:32.312Z,20.7
2017-09-15T12:25:32.332Z,20.72
2017-09-15T12:26:32.234Z,20.74
2017-09-15T12:27:32.053Z,20.75
2017-09-15T12:28:32.072Z,20.75
2017-09-15T12:29:32.420Z,20.77
2017-09-15T12:30:31.794Z,20.75
2017-09-15T12:31:32.465Z,20.77
2017-09-15T12:32:32.485Z,20.78
2017-09-15T12:33:32.194Z,20.92
2017-09-15T12:34:32.208Z,20.78
2017-09-15T12:35:32.230Z,20.9
2017-09-15T12:36:32.346Z,20.92
2017-09-15T12:37:32.676Z,20.96
2017-09-15T12:38:31.973Z,20.96
2017-09-15T12:39:32.318Z,20.92
2017-09-15T12:40:32.339Z,21.05
2017-09-15T12:41:32.363Z,21
2017-09-15T12:42:32.477Z,21
2017-09-15T12:43:32.517Z,21.02
2017-09-15T12:44:32.755Z,21.14
2017-09-15T12:45:32.779Z,21.11
2017-09-15T12:46:32.803Z,21.09
2017-09-15T12:47:32.498Z,21.14
2017-09-15T12:48:32.524Z,21.21
2017-09-15T12:49:32.221Z,21.11
2017-09-15T12:50:32.918Z,21.18
2017-09-15T12:51:32.709Z,21.17
2017-09-15T12:52:32.611Z,21.22
2017-09-15T12:53:32.309Z,21.17
2017-09-15T12:54:32.980Z,21.21
2017-09-15T12:55:33.001Z,21.22
2017-09-15T12:56:32.703Z,21.24
2017-09-15T12:57:32.406Z,21.22
2017-09-15T12:58:32.741Z,21.22